Time;durP1;ratioP1;P1;durP2;ratioP2;P2;SDS_P1;SDS_P2;PMS_P1;PMS_P2;Temp;Humidity;BMP_temperature;BMP_pressure;BME280_temperature;BME280_humidity;BME280_pressure;Samples;Min_cycle;Max_cycle;Signal;HPM_P1;HPM_P2
2023/04/09 00:02:09;;;;;;;4.57;4.13;;;;;;;;;;5032824;28;20253;-83
2023/04/09 00:04:36;;;;;;;5.57;4.03;;;;;;;;;;5014641;28;20258;-84
2023/04/09 00:07:03;;;;;;;4.43;4.03;;;;;;;;;;5014089;28;20252;-84
2023/04/09 00:09:31;;;;;;;4.47;4.07;;;;;;;;;;5016261;28;20199;-84
2023/04/09 00:11:58;;;;;;;5.00;4.50;;;;;;;;;;5013867;28;20262;-83
2023/04/09 00:14:25;;;;;;;5.57;5.00;;;;;;;;;;5019945;28;20618;-83
2023/04/09 00:16:54;;;;;;;5.87;4.70;;;;;;;;;;5033798;28;20242;-83
2023/04/09 00:19:21;;;;;;;5.17;4.67;;;;;;;;;;5034154;28;20755;-83
2023/04/09 00:21:48;;;;;;;5.73;5.10;;;;;;;;;;5033205;28;20235;-83
2023/04/09 00:24:15;;;;;;;5.83;4.73;;;;;;;;;;5033604;28;20230;-82
2023/04/09 00:26:42;;;;;;;5.63;4.40;;;;;;;;;;5033411;28;20226;-83
2023/04/09 00:29:09;;;;;;;4.53;4.03;;;;;;;;;;5034208;28;20203;-83
2023/04/09 00:31:36;;;;;;;5.97;4.50;;;;;;;;;;5033047;28;20231;-83
2023/04/09 00:34:04;;;;;;;7.47;4.70;;;;;;;;;;5033954;28;20624;-83
2023/04/09 00:36:32;;;;;;;4.50;3.90;;;;;;;;;;5020799;28;20245;-83
2023/04/09 00:38:59;;;;;;;5.07;4.57;;;;;;;;;;5033548;28;20234;-83
2023/04/09 00:41:26;;;;;;;6.50;4.30;;;;;;;;;;5032969;28;20235;-83
2023/04/09 00:43:53;;;;;;;5.13;4.33;;;;;;;;;;5033756;28;20223;-83
2023/04/09 00:46:20;;;;;;;5.00;4.50;;;;;;;;;;5032938;28;20634;-83
2023/04/09 00:48:47;;;;;;;4.80;4.30;;;;;;;;;;5033222;28;20248;-83
2023/04/09 00:51:15;;;;;;;5.33;4.80;;;;;;;;;;5032463;28;20292;-83
2023/04/09 00:53:42;;;;;;;5.67;5.03;;;;;;;;;;5033447;28;20284;-83
2023/04/09 00:56:10;;;;;;;6.23;4.93;;;;;;;;;;5032479;28;20312;-83
2023/04/09 00:58:37;;;;;;;5.03;4.50;;;;;;;;;;5033320;28;20234;-83
2023/04/09 01:01:05;;;;;;;4.90;4.40;;;;;;;;;;5032328;28;20242;-83
2023/04/09 01:03:32;;;;;;;6.20;4.73;;;;;;;;;;5029303;28;20207;-82
2023/04/09 01:06:02;;;;;;;5.33;4.43;;;;;;;;;;5032457;28;20227;-83
2023/04/09 01:08:34;;;;;;;5.53;4.67;;;;;;;;;;5032919;28;20206;-83
2023/04/09 01:11:05;;;;;;;6.27;4.87;;;;;;;;;;5033271;28;20254;-87
2023/04/09 01:13:39;;;;;;;6.93;5.30;;;;;;;;;;5034573;28;20234;-87
2023/04/09 01:16:07;;;;;;;6.40;5.00;;;;;;;;;;5033692;28;20226;-85
2023/04/09 01:18:36;;;;;;;6.63;5.60;;;;;;;;;;5034299;28;20210;-86
2023/04/09 01:21:05;;;;;;;5.33;4.80;;;;;;;;;;5033414;28;20675;-86
2023/04/09 01:23:37;;;;;;;5.67;4.83;;;;;;;;;;5033728;28;20684;-86
2023/04/09 01:26:07;;;;;;;6.57;5.43;;;;;;;;;;5033488;28;20257;-86
2023/04/09 01:28:37;;;;;;;6.90;5.63;;;;;;;;;;5034160;28;20207;-85
2023/04/09 01:31:07;;;;;;;6.03;5.03;;;;;;;;;;5033545;28;20229;-85
2023/04/09 01:33:34;;;;;;;6.00;4.67;;;;;;;;;;5033654;28;20228;-86
2023/04/09 01:36:02;;;;;;;6.33;5.40;;;;;;;;;;5033269;28;20304;-86
2023/04/09 01:38:29;;;;;;;6.20;5.00;;;;;;;;;;5034035;28;20261;-86
2023/04/09 01:40:57;;;;;;;8.93;5.10;;;;;;;;;;5033058;28;20694;-85
2023/04/09 01:43:24;;;;;;;7.33;5.23;;;;;;;;;;5033764;28;20256;-86
2023/04/09 01:45:53;;;;;;;6.37;5.53;;;;;;;;;;5033334;28;20301;-86
2023/04/09 01:48:20;;;;;;;5.60;5.00;;;;;;;;;;5034285;28;20206;-86
2023/04/09 01:50:47;;;;;;;7.07;5.30;;;;;;;;;;5033494;28;20206;-86
2023/04/09 01:53:14;;;;;;;5.73;4.77;;;;;;;;;;5033409;28;20670;-86
2023/04/09 01:55:41;;;;;;;6.53;4.50;;;;;;;;;;5033179;28;20227;-87
2023/04/09 01:58:08;;;;;;;4.93;4.20;;;;;;;;;;5033785;28;20203;-86
2023/04/09 02:00:36;;;;;;;5.13;4.60;;;;;;;;;;5033229;28;20226;-86
2023/04/09 02:03:08;;;;;;;5.03;4.33;;;;;;;;;;5032905;28;20211;-86
2023/04/09 02:05:38;;;;;;;4.87;4.20;;;;;;;;;;5033120;28;20238;-85
2023/04/09 02:08:07;;;;;;;4.63;4.23;;;;;;;;;;5012979;28;20319;-86
2023/04/09 02:10:36;;;;;;;5.80;4.90;;;;;;;;;;5018893;28;20191;-86
2023/04/09 02:13:05;;;;;;;5.93;5.03;;;;;;;;;;5032741;28;20219;-85
2023/04/09 02:15:34;;;;;;;6.83;5.23;;;;;;;;;;5033095;28;20223;-86
2023/04/09 02:18:02;;;;;;;5.17;4.67;;;;;;;;;;5032573;28;20235;-86
2023/04/09 02:20:30;;;;;;;5.50;5.00;;;;;;;;;;5032951;28;20222;-85
2023/04/09 02:22:57;;;;;;;5.30;4.80;;;;;;;;;;5032390;28;20584;-86
2023/04/09 02:25:25;;;;;;;5.63;4.70;;;;;;;;;;5032681;28;20226;-86
2023/04/09 02:27:52;;;;;;;4.97;4.47;;;;;;;;;;5032443;28;20241;-86
2023/04/09 02:30:19;;;;;;;4.90;4.40;;;;;;;;;;5032873;28;20225;-85
2023/04/09 02:32:46;;;;;;;5.33;4.83;;;;;;;;;;5032170;28;20239;-86
2023/04/09 02:35:14;;;;;;;4.50;4.10;;;;;;;;;;5033078;28;20233;-86
2023/04/09 02:37:42;;;;;;;5.77;5.07;;;;;;;;;;5032515;28;20238;-86
2023/04/09 02:40:10;;;;;;;5.67;4.37;;;;;;;;;;5032938;28;20729;-86
2023/04/09 02:42:37;;;;;;;6.07;4.57;;;;;;;;;;5032268;28;20661;-86
2023/04/09 02:45:04;;;;;;;8.83;5.13;;;;;;;;;;5032901;28;20226;-86
2023/04/09 02:47:31;;;;;;;4.80;4.40;;;;;;;;;;5032416;28;20258;-86
2023/04/09 02:49:58;;;;;;;5.00;4.50;;;;;;;;;;5032566;28;20207;-86
2023/04/09 02:52:25;;;;;;;4.83;4.33;;;;;;;;;;5023050;28;20240;-85
2023/04/09 02:54:54;;;;;;;5.80;4.00;;;;;;;;;;5033014;28;20243;-86
2023/04/09 02:57:21;;;;;;;6.20;4.30;;;;;;;;;;5032396;28;20228;-85
2023/04/09 02:59:48;;;;;;;4.97;4.57;;;;;;;;;;5032445;28;20593;-86
2023/04/09 03:02:15;;;;;;;6.13;5.27;;;;;;;;;;5031987;28;20242;-85
2023/04/09 03:04:42;;;;;;;5.37;4.63;;;;;;;;;;5032751;28;20233;-86
2023/04/09 03:07:09;;;;;;;5.70;5.10;;;;;;;;;;5032148;28;20364;-86
2023/04/09 03:09:36;;;;;;;5.17;4.67;;;;;;;;;;5032951;28;20209;-86
2023/04/09 03:12:04;;;;;;;8.20;4.97;;;;;;;;;;5032230;28;20248;-86
2023/04/09 03:14:31;;;;;;;4.80;4.30;;;;;;;;;;5032861;28;20311;-86
2023/04/09 03:16:58;;;;;;;6.93;4.80;;;;;;;;;;5032111;28;20820;-86
2023/04/09 03:19:25;;;;;;;8.43;5.60;;;;;;;;;;5032073;28;20213;-85
2023/04/09 03:21:53;;;;;;;7.30;5.07;;;;;;;;;;5031768;28;20716;-86
2023/04/09 03:24:20;;;;;;;6.90;5.20;;;;;;;;;;5032376;28;20247;-85
2023/04/09 03:26:47;;;;;;;5.77;4.83;;;;;;;;;;5032194;28;20716;-86
2023/04/09 03:29:16;;;;;;;6.27;5.13;;;;;;;;;;5032552;28;20210;-86
2023/04/09 03:31:43;;;;;;;7.93;5.17;;;;;;;;;;5031780;28;20230;-86
2023/04/09 03:34:10;;;;;;;5.00;4.50;;;;;;;;;;5032304;28;20230;-86
2023/04/09 03:36:37;;;;;;;7.93;5.87;;;;;;;;;;5031968;28;20234;-86
2023/04/09 03:39:04;;;;;;;6.13;4.63;;;;;;;;;;5036151;28;20208;-86
2023/04/09 03:41:31;;;;;;;4.83;4.37;;;;;;;;;;5035212;28;20235;-86
2023/04/09 03:43:58;;;;;;;5.30;4.27;;;;;;;;;;5036036;28;20227;-86
2023/04/09 03:46:26;;;;;;;5.03;4.53;;;;;;;;;;5035782;28;20252;-85
2023/04/09 03:48:53;;;;;;;5.90;4.33;;;;;;;;;;5036034;28;20218;-85
2023/04/09 03:51:20;;;;;;;6.87;4.43;;;;;;;;;;5035323;28;20234;-84
2023/04/09 03:53:55;;;;;;;6.87;4.53;;;;;;;;;;5036049;28;20227;-85
2023/04/09 03:56:22;;;;;;;6.00;4.97;;;;;;;;;;5035643;28;20228;-85
2023/04/09 03:58:49;;;;;;;8.90;5.27;;;;;;;;;;5036197;28;20254;-85
2023/04/09 04:01:16;;;;;;;6.00;4.23;;;;;;;;;;5035174;28;20231;-86
2023/04/09 04:03:44;;;;;;;7.70;4.80;;;;;;;;;;5035611;28;20223;-85
2023/04/09 04:06:11;;;;;;;5.53;4.70;;;;;;;;;;5035699;28;20313;-85
2023/04/09 04:08:38;;;;;;;6.27;4.67;;;;;;;;;;5035433;28;20198;-85
2023/04/09 04:11:05;;;;;;;5.90;4.33;;;;;;;;;;5034804;28;20239;-85
2023/04/09 04:13:32;;;;;;;6.47;4.83;;;;;;;;;;5035297;28;20199;-86
2023/04/09 04:15:59;;;;;;;4.83;4.33;;;;;;;;;;5034707;28;20261;-86
2023/04/09 04:18:26;;;;;;;6.70;5.20;;;;;;;;;;5035243;28;20207;-85
2023/04/09 04:20:55;;;;;;;7.80;5.47;;;;;;;;;;5033681;28;20244;-85
2023/04/09 04:23:22;;;;;;;7.67;5.40;;;;;;;;;;5034955;28;20643;-85
2023/04/09 04:25:49;;;;;;;7.63;6.00;;;;;;;;;;5034709;28;20199;-87
2023/04/09 04:28:16;;;;;;;7.17;6.00;;;;;;;;;;5034999;28;20210;-84
2023/04/09 04:30:43;;;;;;;7.13;5.63;;;;;;;;;;5033298;28;20203;-83
2023/04/09 04:33:10;;;;;;;6.83;5.50;;;;;;;;;;5033507;28;20660;-83
2023/04/09 04:35:37;;;;;;;9.40;6.43;;;;;;;;;;5033784;28;20272;-84
2023/04/09 04:38:06;;;;;;;7.80;6.37;;;;;;;;;;5034428;28;20211;-83
2023/04/09 04:40:33;;;;;;;10.27;6.43;;;;;;;;;;5034200;28;20226;-83
2023/04/09 04:43:00;;;;;;;13.87;7.40;;;;;;;;;;5034019;28;20223;-84
2023/04/09 04:45:27;;;;;;;14.63;7.70;;;;;;;;;;5039886;28;20230;-83
2023/04/09 04:47:54;;;;;;;8.93;7.17;;;;;;;;;;5040121;28;20242;-83
2023/04/09 04:50:21;;;;;;;8.97;6.57;;;;;;;;;;5060449;28;20209;-82
2023/04/09 04:52:48;;;;;;;10.17;6.50;;;;;;;;;;5052982;28;20233;-83
2023/04/09 04:55:16;;;;;;;9.03;6.67;;;;;;;;;;5041466;28;20231;-83
2023/04/09 04:57:43;;;;;;;10.07;6.50;;;;;;;;;;5043655;28;20227;-83
2023/04/09 05:00:11;;;;;;;9.50;6.67;;;;;;;;;;5036004;28;20756;-83
2023/04/09 05:02:38;;;;;;;8.10;6.20;;;;;;;;;;5034407;28;20744;-84
2023/04/09 05:05:06;;;;;;;8.47;5.77;;;;;;;;;;5042181;28;20234;-84
2023/04/09 05:07:34;;;;;;;10.57;6.97;;;;;;;;;;5046757;28;20237;-83
2023/04/09 05:10:01;;;;;;;8.40;6.50;;;;;;;;;;5035368;28;20211;-83
2023/04/09 05:12:31;;;;;;;9.23;6.83;;;;;;;;;;5034020;28;20305;-84
2023/04/09 05:14:58;;;;;;;10.07;6.23;;;;;;;;;;5033863;28;20233;-83
2023/04/09 05:17:26;;;;;;;8.23;6.00;;;;;;;;;;5033031;28;20235;-83
2023/04/09 05:19:53;;;;;;;9.90;6.60;;;;;;;;;;5035098;28;20210;-83
2023/04/09 05:22:20;;;;;;;8.40;6.43;;;;;;;;;;5034743;28;20242;-84
2023/04/09 05:24:47;;;;;;;8.53;6.60;;;;;;;;;;5034215;28;20237;-83
2023/04/09 05:27:14;;;;;;;11.13;7.73;;;;;;;;;;5032942;28;20245;-84
2023/04/09 05:29:43;;;;;;;11.13;7.83;;;;;;;;;;5033483;28;20199;-84
2023/04/09 05:32:10;;;;;;;13.50;7.30;;;;;;;;;;5034399;28;20228;-87
2023/04/09 05:34:37;;;;;;;10.67;7.33;;;;;;;;;;5034776;28;20226;-86
2023/04/09 05:37:04;;;;;;;13.30;8.07;;;;;;;;;;5034169;28;20251;-87
2023/04/09 05:39:32;;;;;;;12.60;7.37;;;;;;;;;;5034516;28;20229;-87
2023/04/09 05:41:59;;;;;;;13.33;8.20;;;;;;;;;;5033268;28;20620;-86
2023/04/09 05:44:26;;;;;;;13.70;8.60;;;;;;;;;;5033957;28;20223;-85
2023/04/09 05:46:55;;;;;;;14.60;8.23;;;;;;;;;;5019523;28;20625;-85
2023/04/09 05:49:22;;;;;;;16.70;8.57;;;;;;;;;;5014679;28;20207;-86
2023/04/09 05:51:50;;;;;;;13.10;8.47;;;;;;;;;;5031931;28;20234;-86
2023/04/09 05:54:18;;;;;;;13.83;8.07;;;;;;;;;;5034133;28;20717;-86
2023/04/09 05:56:46;;;;;;;12.00;7.93;;;;;;;;;;5033428;28;20253;-86
2023/04/09 05:59:13;;;;;;;10.53;7.57;;;;;;;;;;5033680;28;20296;-88
2023/04/09 06:01:41;;;;;;;11.77;7.03;;;;;;;;;;5033204;28;20257;-88
2023/04/09 06:04:09;;;;;;;10.07;7.33;;;;;;;;;;5033704;28;20317;-88
2023/04/09 06:06:38;;;;;;;9.73;7.13;;;;;;;;;;5033702;28;20238;-88
2023/04/09 06:09:05;;;;;;;10.73;7.63;;;;;;;;;;5033865;28;20218;-86
2023/04/09 06:11:33;;;;;;;12.83;8.07;;;;;;;;;;5033888;28;20236;-89
2023/04/09 06:14:00;;;;;;;13.87;8.30;;;;;;;;;;5033790;28;20232;-89
2023/04/09 06:16:27;;;;;;;9.63;7.20;;;;;;;;;;5033881;28;20259;-87
2023/04/09 06:18:55;;;;;;;10.47;6.97;;;;;;;;;;5034499;28;20232;-88
2023/04/09 06:21:24;;;;;;;10.97;7.17;;;;;;;;;;5033398;28;20307;-87
2023/04/09 06:23:57;;;;;;;11.10;8.03;;;;;;;;;;5034206;28;20237;-89
2023/04/09 06:26:25;;;;;;;11.63;8.13;;;;;;;;;;5033825;28;20234;-88
2023/04/09 06:28:52;;;;;;;14.70;8.30;;;;;;;;;;5031064;28;20199;-87
2023/04/09 06:31:19;;;;;;;11.63;8.27;;;;;;;;;;5014583;28;20740;-86
2023/04/09 06:33:48;;;;;;;14.43;9.03;;;;;;;;;;5022922;28;20309;-86
2023/04/09 06:36:16;;;;;;;13.43;9.77;;;;;;;;;;5039354;28;20302;-86
2023/04/09 06:38:44;;;;;;;13.67;9.60;;;;;;;;;;5041574;28;20212;-86
2023/04/09 06:41:13;;;;;;;15.30;9.03;;;;;;;;;;5032748;28;20317;-86
2023/04/09 06:43:40;;;;;;;12.80;9.13;;;;;;;;;;5039412;28;20226;-86
2023/04/09 06:46:08;;;;;;;12.03;8.57;;;;;;;;;;5035161;28;20318;-86
2023/04/09 06:48:43;;;;;;;15.23;9.83;;;;;;;;;;5033416;28;20252;-85
2023/04/09 06:51:10;;;;;;;17.43;10.17;;;;;;;;;;5032595;28;20578;-86
2023/04/09 06:53:38;;;;;;;17.30;10.57;;;;;;;;;;5037700;28;20230;-86
2023/04/09 06:56:07;;;;;;;19.27;10.57;;;;;;;;;;5034922;28;20241;-86
2023/04/09 06:58:35;;;;;;;16.67;10.23;;;;;;;;;;5034491;28;20342;-87
2023/04/09 07:01:02;;;;;;;18.27;11.63;;;;;;;;;;5032889;28;20253;-86
2023/04/09 07:03:40;;;;;;;17.20;10.90;;;;;;;;;;5033347;28;20216;-86
2023/04/09 07:06:07;;;;;;;16.33;11.47;;;;;;;;;;5033075;28;20255;-86
2023/04/09 07:08:34;;;;;;;15.97;11.20;;;;;;;;;;5033227;28;20207;-85
2023/04/09 07:11:02;;;;;;;18.90;11.47;;;;;;;;;;5062261;23;20243;-85
2023/04/09 07:13:31;;;;;;;19.97;11.83;;;;;;;;;;5052834;28;20201;-83
2023/04/09 07:15:58;;;;;;;17.40;11.70;;;;;;;;;;5020750;28;20602;-82
2023/04/09 07:18:25;;;;;;;18.77;12.60;;;;;;;;;;5015884;28;20585;-82
2023/04/09 07:20:52;;;;;;;20.83;12.07;;;;;;;;;;5004985;28;20267;-82
2023/04/09 07:23:20;;;;;;;22.53;12.80;;;;;;;;;;4976754;28;20216;-82
2023/04/09 07:25:47;;;;;;;22.43;13.10;;;;;;;;;;4976649;28;20247;-82
2023/04/09 07:28:14;;;;;;;21.67;13.13;;;;;;;;;;4976827;28;20215;-82
2023/04/09 07:30:42;;;;;;;22.27;13.17;;;;;;;;;;4975938;28;20229;-82
2023/04/09 07:33:09;;;;;;;24.43;14.63;;;;;;;;;;4978089;28;20219;-81
2023/04/09 07:35:36;;;;;;;22.80;14.53;;;;;;;;;;5015398;28;20218;-81
2023/04/09 07:38:03;;;;;;;22.43;12.60;;;;;;;;;;5035074;28;20198;-81
2023/04/09 07:40:31;;;;;;;21.47;12.00;;;;;;;;;;5035329;28;20786;-81
2023/04/09 07:42:58;;;;;;;22.27;12.63;;;;;;;;;;5034305;28;20230;-80
2023/04/09 07:45:25;;;;;;;29.33;12.30;;;;;;;;;;5034637;28;20220;-81
2023/04/09 07:47:54;;;;;;;19.53;13.30;;;;;;;;;;5034101;28;20242;-81
2023/04/09 07:50:21;;;;;;;19.03;12.57;;;;;;;;;;5034667;28;20226;-81
2023/04/09 07:52:48;;;;;;;23.27;13.47;;;;;;;;;;5033832;28;20663;-81
2023/04/09 07:55:16;;;;;;;21.97;13.77;;;;;;;;;;5034643;28;20217;-81
2023/04/09 07:57:44;;;;;;;20.87;13.73;;;;;;;;;;5034155;28;20230;-82
2023/04/09 08:00:12;;;;;;;22.07;13.77;;;;;;;;;;5034431;28;21060;-82
2023/04/09 08:02:39;;;;;;;21.97;13.83;;;;;;;;;;5033832;28;20340;-83
2023/04/09 08:05:08;;;;;;;20.60;13.50;;;;;;;;;;5017690;28;20207;-82
2023/04/09 08:07:35;;;;;;;22.57;13.33;;;;;;;;;;5014135;28;20246;-83
2023/04/09 08:10:02;;;;;;;17.07;12.10;;;;;;;;;;5014565;28;20214;-83
2023/04/09 08:12:29;;;;;;;19.77;12.47;;;;;;;;;;4979953;28;20283;-83
2023/04/09 08:14:56;;;;;;;20.47;12.87;;;;;;;;;;4983142;28;20201;-84
2023/04/09 08:17:23;;;;;;;20.10;13.83;;;;;;;;;;4977269;28;20244;-84
2023/04/09 08:19:51;;;;;;;19.10;12.53;;;;;;;;;;4994600;28;20219;-84
2023/04/09 08:22:20;;;;;;;17.70;12.43;;;;;;;;;;4990132;28;20264;-84
2023/04/09 08:24:51;;;;;;;17.37;12.07;;;;;;;;;;4994872;28;20204;-83
2023/04/09 08:27:18;;;;;;;16.47;12.43;;;;;;;;;;4994163;28;20232;-83
2023/04/09 08:29:45;;;;;;;19.77;13.37;;;;;;;;;;4994040;28;20208;-85
2023/04/09 08:32:12;;;;;;;17.30;13.27;;;;;;;;;;4993317;28;20232;-86
2023/04/09 08:34:39;;;;;;;20.00;13.70;;;;;;;;;;4989235;28;20239;-87
2023/04/09 08:37:06;;;;;;;17.47;13.40;;;;;;;;;;4993330;28;20643;-86
2023/04/09 08:39:36;;;;;;;18.03;12.80;;;;;;;;;;4993932;28;20310;-86
2023/04/09 08:42:03;;;;;;;17.07;12.90;;;;;;;;;;4992796;28;20346;-86
2023/04/09 08:44:30;;;;;;;19.50;12.83;;;;;;;;;;4993856;28;20215;-86
2023/04/09 08:46:57;;;;;;;17.77;12.57;;;;;;;;;;4992884;28;20680;-86
2023/04/09 08:49:24;;;;;;;16.87;12.73;;;;;;;;;;4974710;28;20213;-86
2023/04/09 08:51:51;;;;;;;17.83;13.10;;;;;;;;;;4973663;28;20240;-86
2023/04/09 08:54:19;;;;;;;14.80;11.50;;;;;;;;;;4974848;28;20201;-88
2023/04/09 08:56:48;;;;;;;14.77;10.27;;;;;;;;;;4994053;28;20236;-89
2023/04/09 08:59:17;;;;;;;16.77;12.10;;;;;;;;;;4994718;28;20192;-89
2023/04/09 09:01:45;;;;;;;16.57;12.10;;;;;;;;;;5002249;28;20322;-89
2023/04/09 09:04:12;;;;;;;17.30;13.00;;;;;;;;;;5013985;28;20207;-88
2023/04/09 09:06:40;;;;;;;15.87;11.30;;;;;;;;;;4996120;28;20231;-86
2023/04/09 09:09:08;;;;;;;14.00;10.30;;;;;;;;;;4994279;28;20206;-87
2023/04/09 09:11:35;;;;;;;13.20;9.27;;;;;;;;;;4993062;28;20607;-88
2023/04/09 09:14:04;;;;;;;14.70;10.83;;;;;;;;;;4994093;28;20208;-86
2023/04/09 09:16:33;;;;;;;13.63;10.07;;;;;;;;;;5009811;28;20250;-88
2023/04/09 09:19:00;;;;;;;12.30;9.60;;;;;;;;;;5013672;28;20215;-87
2023/04/09 09:21:28;;;;;;;12.20;9.77;;;;;;;;;;5012581;28;20726;-87
2023/04/09 09:23:55;;;;;;;13.27;10.80;;;;;;;;;;5013298;28;20656;-87
2023/04/09 09:26:24;;;;;;;13.33;10.33;;;;;;;;;;5012314;28;20234;-88
2023/04/09 09:28:51;;;;;;;9.87;8.00;;;;;;;;;;5014140;28;20294;-89
2023/04/09 09:31:20;;;;;;;13.07;9.67;;;;;;;;;;5012506;28;20238;-88
2023/04/09 09:33:49;;;;;;;11.87;9.00;;;;;;;;;;5012863;28;20273;-88
2023/04/09 09:36:16;;;;;;;11.43;9.40;;;;;;;;;;5012029;28;20297;-88
2023/04/09 09:38:54;;;;;;;11.20;9.40;;;;;;;;;;5013684;28;20215;-88
2023/04/09 09:41:21;;;;;;;11.03;8.93;;;;;;;;;;5012331;28;20699;-89
2023/04/09 09:43:48;;;;;;;11.23;8.93;;;;;;;;;;5012964;28;20212;-89
2023/04/09 09:46:16;;;;;;;12.13;9.40;;;;;;;;;;5012172;28;20282;-89
2023/04/09 09:48:46;;;;;;;10.97;9.23;;;;;;;;;;5012931;28;20254;-88
2023/04/09 09:51:13;;;;;;;11.10;8.63;;;;;;;;;;5012127;28;20663;-89
2023/04/09 09:53:42;;;;;;;9.80;8.13;;;;;;;;;;5012743;28;20690;-88
2023/04/09 09:56:16;;;;;;;11.97;8.73;;;;;;;;;;5011934;28;20920;-89
2023/04/09 09:58:46;;;;;;;9.60;8.47;;;;;;;;;;5012802;28;20211;-88
2023/04/09 10:01:13;;;;;;;10.37;8.43;;;;;;;;;;5011543;28;20281;-87
2023/04/09 10:03:43;;;;;;;10.90;8.37;;;;;;;;;;5012671;28;20231;-88
2023/04/09 10:06:12;;;;;;;9.33;7.70;;;;;;;;;;5011507;28;20231;-86
2023/04/09 10:08:41;;;;;;;8.43;7.50;;;;;;;;;;5012178;28;20207;-87
2023/04/09 10:11:08;;;;;;;8.07;7.27;;;;;;;;;;5011083;28;20244;-86
2023/04/09 10:13:36;;;;;;;8.00;7.20;;;;;;;;;;5012277;28;20207;-87
2023/04/09 10:16:05;;;;;;;8.23;7.30;;;;;;;;;;5011116;28;20235;-87
2023/04/09 10:18:33;;;;;;;6.60;5.93;;;;;;;;;;5011746;28;20215;-87
2023/04/09 10:21:02;;;;;;;6.00;5.40;;;;;;;;;;5011660;28;20245;-89
2023/04/09 10:23:34;;;;;;;7.53;6.73;;;;;;;;;;5012111;28;20227;-89
2023/04/09 10:26:01;;;;;;;6.80;5.60;;;;;;;;;;5011992;28;20235;-89
2023/04/09 10:28:28;;;;;;;7.20;5.90;;;;;;;;;;5012190;28;20247;-89
2023/04/09 10:30:56;;;;;;;6.53;5.83;;;;;;;;;;5012203;28;20246;-89
2023/04/09 10:33:25;;;;;;;6.33;5.70;;;;;;;;;;5011870;28;20706;-88
2023/04/09 10:35:52;;;;;;;5.80;5.20;;;;;;;;;;5011361;28;20235;-88
2023/04/09 10:38:33;;;;;;;5.67;5.07;;;;;;;;;;5011152;28;20636;-88
2023/04/09 10:41:07;;;;;;;5.70;4.70;;;;;;;;;;5011250;28;20238;-88
2023/04/09 10:43:35;;;;;;;5.93;5.10;;;;;;;;;;5002476;28;20212;-88
2023/04/09 10:46:04;;;;;;;5.73;5.07;;;;;;;;;;5010812;28;20242;-88
2023/04/09 10:48:33;;;;;;;4.30;3.90;;;;;;;;;;5011679;28;20222;-86
2023/04/09 10:51:04;;;;;;;4.77;4.27;;;;;;;;;;5011789;28;20239;-88
2023/04/09 10:53:33;;;;;;;4.70;4.30;;;;;;;;;;5012660;28;20188;-88
2023/04/09 10:56:01;;;;;;;5.27;4.77;;;;;;;;;;5011540;28;20247;-89
2023/04/09 10:58:29;;;;;;;4.47;4.07;;;;;;;;;;5020611;28;20210;-89
2023/04/09 11:00:56;;;;;;;4.97;4.47;;;;;;;;;;5017506;28;20318;-89
2023/04/09 11:03:24;;;;;;;4.77;4.33;;;;;;;;;;5011356;28;20593;-89
2023/04/09 11:05:52;;;;;;;5.13;4.10;;;;;;;;;;5011495;28;20216;-89
2023/04/09 11:08:20;;;;;;;5.40;4.90;;;;;;;;;;5011796;28;20211;-88
2023/04/09 11:10:48;;;;;;;4.60;4.20;;;;;;;;;;5011546;28;20239;-86
2023/04/09 11:13:18;;;;;;;5.30;4.80;;;;;;;;;;5011915;28;20203;-87
2023/04/09 11:15:46;;;;;;;4.67;4.17;;;;;;;;;;5011065;28;20734;-87
2023/04/09 11:18:16;;;;;;;5.07;4.57;;;;;;;;;;5010928;28;20782;-90
2023/04/09 11:20:43;;;;;;;4.87;4.37;;;;;;;;;;5010415;28;20223;-90
2023/04/09 11:23:11;;;;;;;4.63;4.23;;;;;;;;;;5011568;28;20234;-90
2023/04/09 11:25:38;;;;;;;6.20;4.17;;;;;;;;;;5011732;28;20219;-90
2023/04/09 11:28:06;;;;;;;4.70;4.30;;;;;;;;;;5012550;28;20211;-88
2023/04/09 11:30:36;;;;;;;4.63;4.22;;;;;;;;;;5011511;28;20228;-88
2023/04/09 11:33:03;;;;;;;4.88;4.47;;;;;;;;;;5011951;28;20262;-90
2023/04/09 11:35:30;;;;;;;4.75;4.32;;;;;;;;;;5012018;28;20226;-90
2023/04/09 11:37:57;;;;;;;4.40;4.05;;;;;;;;;;5010963;28;20237;-90
2023/04/09 11:40:27;;;;;;;5.30;4.80;;;;;;;;;;5011813;28;20224;-90
2023/04/09 11:42:55;;;;;;;4.57;4.10;;;;;;;;;;5010907;28;20374;-89
2023/04/09 11:45:23;;;;;;;4.65;4.22;;;;;;;;;;5011879;28;20211;-90
2023/04/09 11:47:52;;;;;;;4.90;4.40;;;;;;;;;;5011019;28;20231;-90
2023/04/09 11:50:19;;;;;;;4.78;4.38;;;;;;;;;;5011348;28;20318;-89
2023/04/09 11:52:47;;;;;;;5.10;4.60;;;;;;;;;;5010422;28;20238;-88
2023/04/09 11:55:23;;;;;;;5.38;4.75;;;;;;;;;;5011278;28;20822;-88
2023/04/09 11:57:51;;;;;;;4.88;4.30;;;;;;;;;;5010942;28;20235;-90
2023/04/09 12:00:18;;;;;;;5.47;4.70;;;;;;;;;;5014633;28;20230;-89
2023/04/09 12:02:46;;;;;;;5.07;4.43;;;;;;;;;;5013768;28;20231;-89
2023/04/09 12:05:22;;;;;;;5.30;4.80;;;;;;;;;;5014327;28;20248;-89
2023/04/09 12:07:49;;;;;;;5.00;4.45;;;;;;;;;;5013295;28;20238;-88
2023/04/09 12:10:17;;;;;;;5.30;4.72;;;;;;;;;;5014262;28;20219;-89
2023/04/09 12:12:44;;;;;;;7.15;4.97;;;;;;;;;;5013683;28;20235;-88
2023/04/09 12:15:13;;;;;;;5.32;4.63;;;;;;;;;;5014002;28;20211;-88
2023/04/09 12:17:40;;;;;;;4.95;4.53;;;;;;;;;;5013831;28;20235;-89
2023/04/09 12:20:08;;;;;;;5.43;4.65;;;;;;;;;;5013925;28;20205;-89
2023/04/09 12:22:39;;;;;;;6.20;4.80;;;;;;;;;;5013342;28;20734;-89
2023/04/09 12:25:07;;;;;;;4.80;4.28;;;;;;;;;;5014452;28;20619;-92
2023/04/09 12:27:34;;;;;;;5.07;4.50;;;;;;;;;;5013111;28;20238;-89
2023/04/09 12:30:01;;;;;;;5.85;5.25;;;;;;;;;;5010979;28;20242;-90
2023/04/09 12:32:28;;;;;;;5.22;4.65;;;;;;;;;;5013429;28;20230;-89
2023/04/09 12:34:55;;;;;;;5.13;4.63;;;;;;;;;;5013469;28;20201;-90
2023/04/09 12:37:22;;;;;;;5.03;4.47;;;;;;;;;;5013461;28;20243;-86
2023/04/09 12:39:51;;;;;;;4.55;4.15;;;;;;;;;;5009809;28;20207;-89
2023/04/09 12:42:18;;;;;;;5.50;4.40;;;;;;;;;;4993708;28;20235;-88
2023/04/09 12:44:45;;;;;;;5.07;4.57;;;;;;;;;;4998200;28;20199;-89
2023/04/09 12:47:12;;;;;;;5.70;4.55;;;;;;;;;;5013441;28;20242;-88
2023/04/09 12:49:39;;;;;;;5.07;4.57;;;;;;;;;;5013923;28;20207;-88
2023/04/09 12:52:07;;;;;;;5.43;4.80;;;;;;;;;;5017414;28;20602;-88
2023/04/09 12:54:34;;;;;;;5.00;4.50;;;;;;;;;;5031312;28;20187;-84
2023/04/09 12:57:03;;;;;;;5.05;4.07;;;;;;;;;;5016558;28;20226;-83
2023/04/09 12:59:30;;;;;;;4.43;4.03;;;;;;;;;;5012778;28;20207;-84
2023/04/09 13:01:57;;;;;;;4.93;4.38;;;;;;;;;;5012198;28;20231;-84
2023/04/09 13:04:24;;;;;;;4.68;4.28;;;;;;;;;;5013181;28;20227;-84
2023/04/09 13:06:51;;;;;;;4.40;4.00;;;;;;;;;;5012330;28;20238;-84
2023/04/09 13:09:18;;;;;;;4.60;4.15;;;;;;;;;;5013099;28;20184;-84
2023/04/09 13:11:45;;;;;;;4.72;4.22;;;;;;;;;;5021882;28;20234;-84
2023/04/09 13:14:14;;;;;;;4.55;4.15;;;;;;;;;;5067193;22;20259;-82
2023/04/09 13:16:42;;;;;;;3.80;3.50;;;;;;;;;;5072776;28;20250;-84
2023/04/09 13:19:09;;;;;;;4.43;4.03;;;;;;;;;;5092979;28;20269;-82
2023/04/09 13:21:36;;;;;;;3.92;3.60;;;;;;;;;;5074294;28;20225;-83
2023/04/09 13:24:03;;;;;;;4.38;3.97;;;;;;;;;;5088096;28;20235;-83
2023/04/09 13:26:31;;;;;;;3.80;3.50;;;;;;;;;;5079950;28;20228;-83
2023/04/09 13:28:58;;;;;;;4.05;3.67;;;;;;;;;;5094003;28;20228;-89
2023/04/09 13:31:28;;;;;;;4.65;4.18;;;;;;;;;;5087124;28;20274;-89
2023/04/09 13:33:55;;;;;;;4.72;4.13;;;;;;;;;;5074565;28;20228;-89
2023/04/09 13:36:23;;;;;;;4.00;3.70;;;;;;;;;;5074529;28;20232;-90
2023/04/09 13:38:50;;;;;;;3.70;3.40;;;;;;;;;;5075167;28;20675;-90
2023/04/09 13:41:17;;;;;;;3.85;3.55;;;;;;;;;;5074261;28;20925;-89
2023/04/09 13:43:44;;;;;;;3.97;3.63;;;;;;;;;;5075264;28;20236;-89
2023/04/09 13:46:11;;;;;;;4.28;3.88;;;;;;;;;;5075632;28;20749;-89
2023/04/09 13:48:45;;;;;;;3.40;3.10;;;;;;;;;;5075688;28;20194;-87
2023/04/09 13:51:12;;;;;;;3.42;3.13;;;;;;;;;;5074886;28;20232;-91
2023/04/09 13:53:44;;;;;;;3.05;2.80;;;;;;;;;;5077172;28;20228;-90
2023/04/09 13:56:11;;;;;;;3.35;3.05;;;;;;;;;;5075210;28;20723;-90
2023/04/09 13:58:38;;;;;;;3.13;2.72;;;;;;;;;;5075657;28;20204;-89
2023/04/09 14:01:18;;;;;;;2.90;2.70;;;;;;;;;;5075026;28;20263;-89
2023/04/09 14:04:03;;;;;;;3.88;3.50;;;;;;;;;;5075623;28;20251;-90
2023/04/09 14:06:31;;;;;;;3.75;3.28;;;;;;;;;;5075034;28;20229;-87
2023/04/09 14:09:00;;;;;;;3.13;2.92;;;;;;;;;;5075584;28;20216;-87
2023/04/09 14:11:30;;;;;;;3.30;3.00;;;;;;;;;;5074549;28;20225;-87
2023/04/09 14:13:59;;;;;;;3.20;2.90;;;;;;;;;;5075804;28;20229;-89
2023/04/09 14:16:26;;;;;;;2.97;2.75;;;;;;;;;;5074366;28;20236;-86
2023/04/09 14:18:56;;;;;;;3.10;2.80;;;;;;;;;;5078434;28;20734;-86
2023/04/09 14:21:26;;;;;;;3.72;2.90;;;;;;;;;;5073042;28;20739;-87
2023/04/09 14:23:56;;;;;;;3.13;2.83;;;;;;;;;;5074322;28;20233;-88
2023/04/09 14:26:23;;;;;;;3.40;3.10;;;;;;;;;;5074633;28;20723;-88
2023/04/09 14:28:51;;;;;;;2.83;2.63;;;;;;;;;;5075368;28;20205;-89
2023/04/09 14:31:20;;;;;;;2.90;2.70;;;;;;;;;;5074311;28;20256;-89
2023/04/09 14:33:49;;;;;;;2.78;2.53;;;;;;;;;;5074791;28;20228;-87
2023/04/09 14:36:20;;;;;;;3.05;2.78;;;;;;;;;;5074691;28;20236;-88
2023/04/09 14:38:48;;;;;;;4.45;2.75;;;;;;;;;;5075774;28;20190;-88
2023/04/09 14:41:15;;;;;;;2.78;2.58;;;;;;;;;;5074703;28;20233;-88